CheckWX is a tool to help pilots better visualize weather data.  It is not intended as a substitute for an official pre-flight weather briefing.

14:50:05 UTC

OBBI TAF
Bahrain International Airport
Manama, Bahrain
TAF OBBI 231100Z 2312/2418 07015KT CAVOK

Mar-23@
12:00 UTC

Mar-23 @ 12:00 UTC

Mar-24@
18:00 UTC

Mar-24 @ 18:00 UTC

TAF OBBI 231100Z 2312/2418 07015KT CAVOK
Wind
  • 070° at 15 KTS
Conditions
No significant weather
Cloud Levels
  • No significant clouds